createdAt,value
2018-07-17T00:01:52.127Z,7.17
2018-07-17T00:06:44.683Z,6.40
2018-07-17T00:11:37.359Z,6.70
2018-07-17T00:16:29.942Z,7.07
2018-07-17T00:21:22.545Z,6.90
2018-07-17T00:26:15.105Z,6.93
2018-07-17T00:31:07.694Z,7.73
2018-07-17T00:36:00.682Z,7.57
2018-07-17T00:40:53.367Z,7.90
2018-07-17T00:45:45.964Z,8.27
2018-07-17T00:50:38.570Z,8.50
2018-07-17T00:55:31.156Z,8.37
2018-07-17T01:00:56.428Z,8.07
2018-07-17T01:10:59.161Z,8.47
2018-07-17T01:15:51.835Z,8.80
2018-07-17T01:20:44.452Z,8.90
2018-07-17T01:25:36.981Z,9.03
2018-07-17T01:30:29.482Z,8.30
2018-07-17T01:35:22.175Z,8.90
2018-07-17T01:40:14.745Z,8.90
2018-07-17T01:45:07.370Z,8.93
2018-07-17T01:49:59.965Z,9.10
2018-07-17T01:54:52.561Z,8.97
2018-07-17T01:59:45.173Z,8.73
2018-07-17T02:04:37.848Z,8.90
2018-07-17T02:09:30.644Z,9.20
2018-07-17T02:14:23.260Z,9.37
2018-07-17T02:19:15.811Z,9.73
2018-07-17T02:24:08.390Z,9.70
2018-07-17T02:29:00.918Z,9.60
2018-07-17T02:33:53.605Z,10.50
2018-07-17T02:38:46.186Z,9.97
2018-07-17T02:43:38.888Z,9.73
2018-07-17T02:48:31.429Z,9.60
2018-07-17T02:53:23.969Z,10.27
2018-07-17T02:58:16.568Z,9.77
2018-07-17T03:03:09.208Z,9.33
2018-07-17T03:08:01.889Z,9.63
2018-07-17T03:12:54.485Z,10.20
2018-07-17T03:17:47.032Z,10.37
2018-07-17T03:22:39.795Z,9.17
2018-07-17T03:27:32.358Z,8.97
2018-07-17T03:32:24.915Z,8.83
2018-07-17T03:37:17.445Z,9.20
2018-07-17T03:42:10.022Z,9.40
2018-07-17T03:47:02.625Z,9.17
2018-07-17T03:51:55.248Z,9.50
2018-07-17T03:56:47.838Z,9.90
2018-07-17T04:01:40.496Z,9.50
2018-07-17T04:06:33.102Z,9.67
2018-07-17T04:11:25.792Z,9.43
2018-07-17T04:16:18.346Z,9.30
2018-07-17T04:21:11.111Z,10.50
2018-07-17T04:26:03.668Z,10.07
2018-07-17T04:30:56.308Z,10.10
2018-07-17T04:35:48.938Z,10.03
2018-07-17T04:40:41.439Z,10.47
2018-07-17T04:45:34.035Z,9.77
2018-07-17T04:50:26.822Z,10.13
2018-07-17T04:55:19.361Z,10.23
2018-07-17T05:00:12.048Z,9.70
2018-07-17T05:05:05.060Z,10.07
2018-07-17T05:09:57.842Z,9.67
2018-07-17T05:14:50.512Z,9.63
2018-07-17T05:19:43.116Z,9.03
2018-07-17T05:24:35.660Z,9.90
2018-07-17T05:29:28.258Z,10.30
2018-07-17T05:34:20.871Z,9.93
2018-07-17T05:39:13.398Z,9.97
2018-07-17T05:44:06.027Z,9.70
2018-07-17T05:48:58.624Z,9.47
2018-07-17T05:53:51.305Z,9.10
2018-07-17T05:58:43.897Z,8.17
2018-07-17T06:03:36.522Z,8.93
2018-07-17T06:08:29.161Z,8.70
2018-07-17T06:13:21.791Z,9.43
2018-07-17T06:18:14.339Z,9.07
2018-07-17T06:23:06.982Z,8.70
2018-07-17T06:27:59.672Z,8.50
2018-07-17T06:32:52.220Z,9.23
2018-07-17T06:37:44.763Z,9.20
2018-07-17T06:42:37.343Z,8.70
2018-07-17T06:47:29.960Z,8.33
2018-07-17T06:52:22.522Z,8.83
2018-07-17T06:57:15.191Z,8.90
2018-07-17T07:07:32.436Z,7.37
2018-07-17T07:12:25.099Z,7.33
2018-07-17T07:17:17.646Z,7.70
2018-07-17T07:22:10.302Z,8.23
2018-07-17T07:27:02.999Z,8.10
2018-07-17T07:31:55.513Z,7.40
2018-07-17T07:36:48.228Z,7.53
2018-07-17T07:41:40.896Z,7.80
2018-07-17T07:46:33.813Z,7.43
2018-07-17T07:51:26.494Z,7.07
2018-07-17T07:56:19.070Z,6.60
2018-07-17T08:01:11.688Z,6.80
2018-07-17T08:06:04.321Z,5.80
2018-07-17T08:10:56.995Z,6.20
2018-07-17T08:15:49.582Z,6.23
2018-07-17T08:20:42.221Z,6.40
2018-07-17T08:25:34.839Z,5.87
2018-07-17T08:30:27.447Z,6.37
2018-07-17T08:35:20.028Z,6.00
2018-07-17T08:40:12.809Z,6.50
2018-07-17T08:45:05.431Z,6.13
2018-07-17T08:49:58.053Z,6.37
2018-07-17T08:54:50.670Z,6.27
2018-07-17T08:59:43.306Z,6.00
2018-07-17T09:04:35.845Z,6.43
2018-07-17T09:09:28.394Z,6.73
2018-07-17T09:14:21.199Z,6.73
2018-07-17T09:19:13.717Z,5.70
2018-07-17T09:24:06.927Z,6.83
2018-07-17T09:28:59.523Z,6.93
2018-07-17T09:33:52.182Z,6.63
2018-07-17T09:38:44.833Z,6.63
2018-07-17T09:43:37.671Z,6.63
2018-07-17T09:48:30.329Z,6.50
2018-07-17T09:53:22.869Z,5.93
2018-07-17T09:58:15.431Z,6.40
2018-07-17T10:03:08.031Z,5.77
2018-07-17T10:08:00.770Z,5.70
2018-07-17T10:12:53.658Z,5.70
2018-07-17T10:17:46.295Z,5.47
2018-07-17T10:22:39.256Z,6.13
2018-07-17T10:27:31.818Z,5.43
2018-07-17T10:32:24.329Z,5.83
2018-07-17T10:37:17.150Z,5.53
2018-07-17T10:42:09.911Z,5.63
2018-07-17T10:47:02.507Z,5.50
2018-07-17T10:51:55.260Z,5.33
2018-07-17T10:56:47.843Z,5.60
2018-07-17T11:01:40.612Z,5.17
2018-07-17T11:06:33.340Z,7.00
2018-07-17T11:11:25.878Z,5.40
2018-07-17T11:16:18.441Z,5.20
2018-07-17T11:21:10.966Z,5.47
2018-07-17T11:26:03.533Z,5.73
2018-07-17T11:30:56.238Z,5.17
2018-07-17T11:35:48.785Z,5.50
2018-07-17T11:40:41.297Z,5.47
2018-07-17T11:45:33.894Z,5.53
2018-07-17T11:50:26.530Z,5.50
2018-07-17T11:55:19.244Z,5.60
2018-07-17T12:00:11.949Z,6.13
2018-07-17T12:05:04.734Z,5.80
2018-07-17T12:09:57.352Z,6.40
2018-07-17T12:14:50.061Z,6.57
2018-07-17T12:19:42.779Z,6.17
2018-07-17T12:24:35.352Z,6.53
2018-07-17T12:29:28.326Z,5.93
2018-07-17T12:34:21.189Z,6.40
2018-07-17T12:39:13.812Z,6.40
2018-07-17T12:44:06.446Z,6.17
2018-07-17T12:48:59.307Z,5.97
2018-07-17T12:53:51.926Z,6.00
2018-07-17T12:58:44.468Z,5.57
2018-07-17T13:03:37.079Z,5.80
2018-07-17T13:08:30.202Z,5.67
2018-07-17T13:13:22.795Z,5.60
2018-07-17T13:18:15.354Z,5.67
2018-07-17T13:23:07.893Z,5.60
2018-07-17T13:28:01.209Z,6.03
2018-07-17T13:32:53.769Z,5.80
2018-07-17T13:37:46.408Z,6.07
2018-07-17T13:42:38.984Z,7.03
2018-07-17T13:47:31.491Z,5.90
2018-07-17T13:52:24.033Z,5.93
2018-07-17T13:57:16.629Z,6.07
2018-07-17T14:02:09.441Z,5.73
2018-07-17T14:07:02.097Z,5.93
2018-07-17T14:11:54.641Z,6.23
2018-07-17T14:16:47.288Z,6.50
2018-07-17T14:21:39.884Z,6.13
2018-07-17T14:26:32.515Z,6.07
2018-07-17T14:31:25.190Z,6.57
2018-07-17T14:36:17.843Z,6.27
2018-07-17T14:41:10.403Z,6.63
2018-07-17T14:46:02.914Z,6.63
2018-07-17T14:50:55.532Z,7.10
2018-07-17T14:55:48.221Z,6.53
2018-07-17T15:00:40.924Z,6.67
2018-07-17T15:05:33.641Z,6.57
2018-07-17T15:10:26.215Z,7.03
2018-07-17T15:15:19.230Z,6.80
2018-07-17T15:20:12.123Z,7.73
2018-07-17T15:25:05.493Z,7.90
2018-07-17T15:29:58.087Z,7.90
2018-07-17T15:34:50.704Z,7.57
2018-07-17T15:39:43.340Z,7.07
2018-07-17T15:44:35.939Z,7.87
2018-07-17T15:49:28.540Z,7.67
2018-07-17T15:54:21.106Z,7.73
2018-07-17T15:59:13.799Z,7.70
2018-07-17T16:04:06.755Z,7.20
2018-07-17T16:08:59.564Z,6.17
2018-07-17T16:13:52.378Z,6.90
2018-07-17T16:18:44.801Z,6.70
2018-07-17T16:23:37.345Z,6.47
2018-07-17T16:28:29.901Z,7.27
2018-07-17T16:33:22.491Z,7.33
2018-07-17T16:38:15.144Z,7.50
2018-07-17T16:43:07.720Z,7.90
2018-07-17T16:48:00.322Z,8.13
2018-07-17T16:52:52.937Z,8.27
2018-07-17T16:57:45.674Z,7.90
2018-07-17T17:02:38.256Z,7.87
2018-07-17T17:07:30.899Z,7.53
2018-07-17T17:12:23.567Z,7.50
2018-07-17T17:17:16.251Z,7.53
2018-07-17T17:22:08.834Z,7.50
2018-07-17T17:27:01.545Z,7.27
2018-07-17T17:31:54.282Z,7.57
2018-07-17T17:36:46.960Z,7.40
2018-07-17T17:41:39.522Z,7.77
2018-07-17T17:46:32.139Z,7.70
2018-07-17T17:51:24.960Z,7.70
2018-07-17T17:56:17.504Z,7.33
2018-07-17T18:01:10.024Z,7.53
2018-07-17T18:06:02.626Z,7.93
2018-07-17T18:10:55.127Z,7.63
2018-07-17T18:15:47.709Z,8.07
2018-07-17T18:20:40.298Z,8.67
2018-07-17T18:25:32.934Z,8.03
2018-07-17T18:30:25.715Z,7.90
2018-07-17T18:35:18.302Z,8.03
2018-07-17T18:40:11.162Z,8.97
2018-07-17T18:45:03.795Z,8.63
2018-07-17T18:50:12.310Z,8.47
2018-07-17T18:54:49.177Z,8.13
2018-07-17T18:59:41.857Z,9.00
2018-07-17T19:04:34.342Z,8.10
2018-07-17T19:09:26.923Z,8.40
2018-07-17T19:14:19.634Z,9.00
2018-07-17T19:19:12.379Z,8.10
2018-07-17T19:24:05.044Z,8.10
2018-07-17T19:28:57.686Z,8.50
2018-07-17T19:33:50.316Z,8.57
2018-07-17T19:38:42.858Z,9.43
2018-07-17T19:43:35.480Z,8.57
2018-07-17T19:48:28.069Z,8.60
2018-07-17T19:53:20.651Z,8.90
2018-07-17T19:58:13.207Z,8.47
2018-07-17T20:03:05.775Z,8.33
2018-07-17T20:07:58.447Z,9.20
2018-07-17T20:12:51.088Z,9.10
2018-07-17T20:17:43.654Z,8.50
2018-07-17T20:22:36.240Z,8.80
2018-07-17T20:27:28.854Z,9.13
2018-07-17T20:32:21.402Z,8.57
2018-07-17T20:37:13.981Z,7.97
2018-07-17T20:42:06.489Z,8.40
2018-07-17T20:46:59.015Z,7.80
2018-07-17T20:51:51.552Z,8.30
2018-07-17T20:56:44.095Z,8.00
2018-07-17T21:01:36.617Z,8.53
2018-07-17T21:06:29.063Z,7.90
2018-07-17T21:11:21.577Z,8.90
2018-07-17T21:16:14.150Z,9.70
2018-07-17T21:21:06.638Z,8.77
2018-07-17T21:25:59.132Z,9.13
2018-07-17T21:30:51.717Z,9.00
2018-07-17T21:35:44.322Z,9.33
2018-07-17T21:40:36.821Z,9.37
2018-07-17T21:45:29.375Z,9.50
2018-07-17T21:50:21.943Z,9.00
2018-07-17T21:55:14.607Z,9.93
2018-07-17T22:00:08.920Z,9.50
2018-07-17T22:05:01.442Z,9.57
2018-07-17T22:09:54.020Z,10.10
2018-07-17T22:14:46.620Z,9.27
2018-07-17T22:19:39.157Z,10.13
2018-07-17T22:24:31.742Z,9.77
2018-07-17T22:29:24.300Z,9.93
2018-07-17T22:34:16.922Z,9.90
2018-07-17T22:39:09.959Z,9.57
2018-07-17T22:44:02.647Z,10.20
2018-07-17T22:48:55.258Z,10.27
2018-07-17T22:53:47.843Z,9.80
2018-07-17T22:58:40.385Z,10.03
2018-07-17T23:03:32.905Z,10.40
2018-07-17T23:08:25.410Z,10.27
2018-07-17T23:13:17.958Z,10.70
2018-07-17T23:18:10.528Z,10.67
2018-07-17T23:23:03.091Z,11.50
2018-07-17T23:27:56.388Z,10.53
2018-07-17T23:32:49.859Z,11.27
2018-07-17T23:37:42.370Z,11.20
2018-07-17T23:42:34.962Z,11.37
2018-07-17T23:47:27.503Z,11.50
2018-07-17T23:52:20.100Z,11.47
2018-07-17T23:57:12.710Z,11.63
